sensor_id;sensor_type;location;lat;lon;timestamp;P1;durP1;ratioP1;P2;durP2;ratioP2
41512;SDS011;27244;59.940;30.280;2022-08-20T00:02:02;4.00;;;3.60;;
41512;SDS011;27244;59.940;30.280;2022-08-20T00:04:29;4.45;;;3.60;;
41512;SDS011;27244;59.940;30.280;2022-08-20T00:06:56;5.90;;;3.80;;
41512;SDS011;27244;59.940;30.280;2022-08-20T00:09:24;5.70;;;4.25;;
41512;SDS011;27244;59.940;30.280;2022-08-20T00:11:50;4.35;;;3.88;;
41512;SDS011;27244;59.940;30.280;2022-08-20T00:14:19;6.68;;;3.90;;
41512;SDS011;27244;59.940;30.280;2022-08-20T00:16:46;5.75;;;4.07;;
41512;SDS011;27244;59.940;30.280;2022-08-20T00:19:13;6.20;;;3.78;;
41512;SDS011;27244;59.940;30.280;2022-08-20T00:21:40;6.32;;;3.55;;
41512;SDS011;27244;59.940;30.280;2022-08-20T00:24:07;4.47;;;3.70;;
41512;SDS011;27244;59.940;30.280;2022-08-20T00:26:34;6.18;;;4.25;;
41512;SDS011;27244;59.940;30.280;2022-08-20T00:29:02;5.38;;;3.88;;
41512;SDS011;27244;59.940;30.280;2022-08-20T00:31:30;4.93;;;3.72;;
41512;SDS011;27244;59.940;30.280;2022-08-20T00:33:57;6.95;;;3.70;;
41512;SDS011;27244;59.940;30.280;2022-08-20T00:36:25;6.05;;;3.83;;
41512;SDS011;27244;59.940;30.280;2022-08-20T00:38:52;4.75;;;3.85;;
41512;SDS011;27244;59.940;30.280;2022-08-20T00:41:21;5.15;;;4.40;;
41512;SDS011;27244;59.940;30.280;2022-08-20T00:43:50;7.80;;;3.95;;
41512;SDS011;27244;59.940;30.280;2022-08-20T00:46:29;4.97;;;3.78;;
41512;SDS011;27244;59.940;30.280;2022-08-20T00:48:58;4.80;;;3.70;;
41512;SDS011;27244;59.940;30.280;2022-08-20T00:51:30;5.40;;;3.45;;
41512;SDS011;27244;59.940;30.280;2022-08-20T00:54:00;4.18;;;3.33;;
41512;SDS011;27244;59.940;30.280;2022-08-20T00:56:31;5.00;;;3.60;;
41512;SDS011;27244;59.940;30.280;2022-08-20T00:58:59;5.40;;;3.92;;
41512;SDS011;27244;59.940;30.280;2022-08-20T01:01:27;5.05;;;3.70;;
41512;SDS011;27244;59.940;30.280;2022-08-20T01:06:26;5.55;;;3.38;;
41512;SDS011;27244;59.940;30.280;2022-08-20T01:08:53;5.47;;;3.70;;
41512;SDS011;27244;59.940;30.280;2022-08-20T01:11:21;4.53;;;3.30;;
41512;SDS011;27244;59.940;30.280;2022-08-20T01:13:55;5.63;;;3.45;;
41512;SDS011;27244;59.940;30.280;2022-08-20T01:16:23;5.10;;;3.45;;
41512;SDS011;27244;59.940;30.280;2022-08-20T01:18:55;4.15;;;3.60;;
41512;SDS011;27244;59.940;30.280;2022-08-20T01:21:26;4.97;;;3.33;;
41512;SDS011;27244;59.940;30.280;2022-08-20T01:23:58;5.82;;;3.45;;
41512;SDS011;27244;59.940;30.280;2022-08-20T01:26:33;4.43;;;3.65;;
41512;SDS011;27244;59.940;30.280;2022-08-20T01:29:04;8.93;;;3.80;;
41512;SDS011;27244;59.940;30.280;2022-08-20T01:31:35;8.63;;;3.63;;
41512;SDS011;27244;59.940;30.280;2022-08-20T01:34:05;6.03;;;3.88;;
41512;SDS011;27244;59.940;30.280;2022-08-20T01:36:35;8.23;;;3.88;;
41512;SDS011;27244;59.940;30.280;2022-08-20T01:41:40;6.55;;;3.38;;
41512;SDS011;27244;59.940;30.280;2022-08-20T01:44:17;12.63;;;3.72;;
41512;SDS011;27244;59.940;30.280;2022-08-20T01:46:45;10.32;;;3.63;;
41512;SDS011;27244;59.940;30.280;2022-08-20T01:49:15;7.18;;;3.70;;
41512;SDS011;27244;59.940;30.280;2022-08-20T01:51:45;6.80;;;3.50;;
41512;SDS011;27244;59.940;30.280;2022-08-20T01:54:13;6.15;;;3.40;;
41512;SDS011;27244;59.940;30.280;2022-08-20T01:56:51;5.40;;;3.85;;
41512;SDS011;27244;59.940;30.280;2022-08-20T01:59:20;6.05;;;3.45;;
41512;SDS011;27244;59.940;30.280;2022-08-20T02:01:48;9.25;;;4.45;;
41512;SDS011;27244;59.940;30.280;2022-08-20T02:04:15;5.85;;;3.25;;
41512;SDS011;27244;59.940;30.280;2022-08-20T02:06:44;5.57;;;3.85;;
41512;SDS011;27244;59.940;30.280;2022-08-20T02:09:13;4.28;;;3.45;;
41512;SDS011;27244;59.940;30.280;2022-08-20T02:11:41;4.93;;;3.40;;
41512;SDS011;27244;59.940;30.280;2022-08-20T02:14:10;5.85;;;3.35;;
41512;SDS011;27244;59.940;30.280;2022-08-20T02:16:38;5.03;;;3.83;;
41512;SDS011;27244;59.940;30.280;2022-08-20T02:19:08;6.18;;;3.63;;
41512;SDS011;27244;59.940;30.280;2022-08-20T02:21:39;5.63;;;3.33;;
41512;SDS011;27244;59.940;30.280;2022-08-20T02:24:08;5.63;;;3.80;;
41512;SDS011;27244;59.940;30.280;2022-08-20T02:26:36;5.53;;;3.70;;
41512;SDS011;27244;59.940;30.280;2022-08-20T02:29:03;5.28;;;3.60;;
41512;SDS011;27244;59.940;30.280;2022-08-20T02:31:33;6.28;;;3.85;;
41512;SDS011;27244;59.940;30.280;2022-08-20T02:34:02;6.15;;;3.70;;
41512;SDS011;27244;59.940;30.280;2022-08-20T02:36:30;4.40;;;3.45;;
41512;SDS011;27244;59.940;30.280;2022-08-20T02:38:57;4.93;;;3.63;;
41512;SDS011;27244;59.940;30.280;2022-08-20T02:41:24;6.43;;;3.90;;
41512;SDS011;27244;59.940;30.280;2022-08-20T02:43:51;5.65;;;3.60;;
41512;SDS011;27244;59.940;30.280;2022-08-20T02:46:18;5.50;;;3.58;;
41512;SDS011;27244;59.940;30.280;2022-08-20T02:48:47;7.38;;;4.07;;
41512;SDS011;27244;59.940;30.280;2022-08-20T02:51:14;6.43;;;3.85;;
41512;SDS011;27244;59.940;30.280;2022-08-20T02:53:41;6.00;;;3.88;;
41512;SDS011;27244;59.940;30.280;2022-08-20T02:56:08;6.10;;;4.15;;
41512;SDS011;27244;59.940;30.280;2022-08-20T02:58:36;6.60;;;4.22;;
41512;SDS011;27244;59.940;30.280;2022-08-20T03:01:04;5.55;;;4.00;;
41512;SDS011;27244;59.940;30.280;2022-08-20T03:03:33;6.38;;;4.30;;
41512;SDS011;27244;59.940;30.280;2022-08-20T03:06:03;7.05;;;3.95;;
41512;SDS011;27244;59.940;30.280;2022-08-20T03:08:30;5.82;;;4.28;;
41512;SDS011;27244;59.940;30.280;2022-08-20T03:10:58;9.02;;;4.47;;
41512;SDS011;27244;59.940;30.280;2022-08-20T03:13:25;4.32;;;3.63;;
41512;SDS011;27244;59.940;30.280;2022-08-20T03:15:53;6.88;;;4.40;;
41512;SDS011;27244;59.940;30.280;2022-08-20T03:18:23;6.20;;;4.18;;
41512;SDS011;27244;59.940;30.280;2022-08-20T03:20:51;5.18;;;3.80;;
41512;SDS011;27244;59.940;30.280;2022-08-20T03:23:20;7.53;;;4.28;;
41512;SDS011;27244;59.940;30.280;2022-08-20T03:25:47;3.97;;;3.58;;
41512;SDS011;27244;59.940;30.280;2022-08-20T03:28:15;5.10;;;4.10;;
41512;SDS011;27244;59.940;30.280;2022-08-20T03:30:43;6.65;;;4.03;;
41512;SDS011;27244;59.940;30.280;2022-08-20T03:33:10;7.50;;;3.83;;
41512;SDS011;27244;59.940;30.280;2022-08-20T03:35:37;4.47;;;4.07;;
41512;SDS011;27244;59.940;30.280;2022-08-20T03:38:05;5.82;;;3.70;;
41512;SDS011;27244;59.940;30.280;2022-08-20T03:40:35;6.22;;;4.28;;
41512;SDS011;27244;59.940;30.280;2022-08-20T03:43:03;5.70;;;4.10;;
41512;SDS011;27244;59.940;30.280;2022-08-20T03:45:33;5.57;;;3.92;;
41512;SDS011;27244;59.940;30.280;2022-08-20T03:48:02;5.43;;;4.25;;
41512;SDS011;27244;59.940;30.280;2022-08-20T03:50:32;7.07;;;3.95;;
41512;SDS011;27244;59.940;30.280;2022-08-20T03:53:00;4.95;;;3.67;;
41512;SDS011;27244;59.940;30.280;2022-08-20T03:55:28;7.68;;;4.53;;
41512;SDS011;27244;59.940;30.280;2022-08-20T03:57:59;4.60;;;4.20;;
41512;SDS011;27244;59.940;30.280;2022-08-20T04:00:28;4.40;;;3.58;;
41512;SDS011;27244;59.940;30.280;2022-08-20T04:02:57;5.30;;;4.43;;
41512;SDS011;27244;59.940;30.280;2022-08-20T04:05:25;4.85;;;4.45;;
41512;SDS011;27244;59.940;30.280;2022-08-20T04:07:54;4.93;;;4.00;;
41512;SDS011;27244;59.940;30.280;2022-08-20T04:10:23;5.90;;;4.60;;
41512;SDS011;27244;59.940;30.280;2022-08-20T04:12:51;6.95;;;5.13;;
41512;SDS011;27244;59.940;30.280;2022-08-20T04:15:19;6.90;;;4.55;;
41512;SDS011;27244;59.940;30.280;2022-08-20T04:17:49;10.40;;;4.90;;
41512;SDS011;27244;59.940;30.280;2022-08-20T04:20:18;8.57;;;4.80;;
41512;SDS011;27244;59.940;30.280;2022-08-20T04:22:48;6.53;;;4.35;;
41512;SDS011;27244;59.940;30.280;2022-08-20T04:25:15;6.88;;;3.78;;
41512;SDS011;27244;59.940;30.280;2022-08-20T04:27:42;5.97;;;4.00;;
41512;SDS011;27244;59.940;30.280;2022-08-20T04:30:11;6.50;;;4.38;;
41512;SDS011;27244;59.940;30.280;2022-08-20T04:32:41;8.35;;;4.45;;
41512;SDS011;27244;59.940;30.280;2022-08-20T04:35:10;8.55;;;4.60;;
41512;SDS011;27244;59.940;30.280;2022-08-20T04:37:40;7.82;;;4.57;;
41512;SDS011;27244;59.940;30.280;2022-08-20T04:40:09;6.30;;;4.43;;
41512;SDS011;27244;59.940;30.280;2022-08-20T04:42:56;6.20;;;4.72;;
41512;SDS011;27244;59.940;30.280;2022-08-20T04:45:23;7.65;;;4.15;;
41512;SDS011;27244;59.940;30.280;2022-08-20T04:47:52;8.52;;;4.38;;
41512;SDS011;27244;59.940;30.280;2022-08-20T04:50:19;6.85;;;4.55;;
41512;SDS011;27244;59.940;30.280;2022-08-20T04:52:46;8.38;;;4.57;;
41512;SDS011;27244;59.940;30.280;2022-08-20T04:55:14;8.23;;;4.60;;
41512;SDS011;27244;59.940;30.280;2022-08-20T04:57:43;8.02;;;3.97;;
41512;SDS011;27244;59.940;30.280;2022-08-20T05:00:12;8.57;;;4.53;;
41512;SDS011;27244;59.940;30.280;2022-08-20T05:02:42;6.18;;;4.45;;
41512;SDS011;27244;59.940;30.280;2022-08-20T05:05:11;7.85;;;4.40;;
41512;SDS011;27244;59.940;30.280;2022-08-20T05:07:39;5.22;;;4.35;;
41512;SDS011;27244;59.940;30.280;2022-08-20T05:10:08;5.75;;;4.18;;
41512;SDS011;27244;59.940;30.280;2022-08-20T05:12:36;6.28;;;4.45;;
41512;SDS011;27244;59.940;30.280;2022-08-20T05:15:05;7.38;;;4.70;;
41512;SDS011;27244;59.940;30.280;2022-08-20T05:17:32;6.97;;;4.45;;
41512;SDS011;27244;59.940;30.280;2022-08-20T05:19:59;6.43;;;3.97;;
41512;SDS011;27244;59.940;30.280;2022-08-20T05:22:28;8.32;;;4.60;;
41512;SDS011;27244;59.940;30.280;2022-08-20T05:24:55;5.60;;;4.30;;
41512;SDS011;27244;59.940;30.280;2022-08-20T05:27:23;5.75;;;4.35;;
41512;SDS011;27244;59.940;30.280;2022-08-20T05:29:51;7.50;;;4.88;;
41512;SDS011;27244;59.940;30.280;2022-08-20T05:32:20;5.80;;;4.22;;
41512;SDS011;27244;59.940;30.280;2022-08-20T05:34:47;6.93;;;4.38;;
41512;SDS011;27244;59.940;30.280;2022-08-20T05:37:14;5.50;;;4.15;;
41512;SDS011;27244;59.940;30.280;2022-08-20T05:39:43;8.35;;;4.78;;
41512;SDS011;27244;59.940;30.280;2022-08-20T05:42:10;6.47;;;4.63;;
41512;SDS011;27244;59.940;30.280;2022-08-20T05:44:37;8.18;;;4.18;;
41512;SDS011;27244;59.940;30.280;2022-08-20T05:47:05;8.30;;;4.63;;
41512;SDS011;27244;59.940;30.280;2022-08-20T05:49:32;7.90;;;4.35;;
41512;SDS011;27244;59.940;30.280;2022-08-20T05:51:59;5.28;;;4.13;;
41512;SDS011;27244;59.940;30.280;2022-08-20T05:54:26;5.55;;;4.40;;
41512;SDS011;27244;59.940;30.280;2022-08-20T05:56:54;5.63;;;4.40;;
41512;SDS011;27244;59.940;30.280;2022-08-20T05:59:22;6.10;;;4.90;;
41512;SDS011;27244;59.940;30.280;2022-08-20T06:01:50;6.95;;;4.13;;
41512;SDS011;27244;59.940;30.280;2022-08-20T06:04:17;7.45;;;4.90;;
41512;SDS011;27244;59.940;30.280;2022-08-20T06:06:51;7.35;;;4.65;;
41512;SDS011;27244;59.940;30.280;2022-08-20T06:09:20;6.10;;;4.50;;
41512;SDS011;27244;59.940;30.280;2022-08-20T06:11:49;6.75;;;5.07;;
41512;SDS011;27244;59.940;30.280;2022-08-20T06:14:17;6.72;;;4.78;;
41512;SDS011;27244;59.940;30.280;2022-08-20T06:16:45;7.43;;;5.20;;
41512;SDS011;27244;59.940;30.280;2022-08-20T06:19:12;6.40;;;4.68;;
41512;SDS011;27244;59.940;30.280;2022-08-20T06:21:39;7.88;;;5.63;;
41512;SDS011;27244;59.940;30.280;2022-08-20T06:24:07;6.15;;;4.65;;
41512;SDS011;27244;59.940;30.280;2022-08-20T06:26:34;10.85;;;5.57;;
41512;SDS011;27244;59.940;30.280;2022-08-20T06:29:01;8.07;;;5.35;;
41512;SDS011;27244;59.940;30.280;2022-08-20T06:31:31;6.25;;;4.97;;
41512;SDS011;27244;59.940;30.280;2022-08-20T06:33:59;8.02;;;5.28;;
41512;SDS011;27244;59.940;30.280;2022-08-20T06:36:27;7.82;;;5.50;;
41512;SDS011;27244;59.940;30.280;2022-08-20T06:38:54;8.93;;;5.70;;
41512;SDS011;27244;59.940;30.280;2022-08-20T06:41:22;9.75;;;5.88;;
41512;SDS011;27244;59.940;30.280;2022-08-20T06:43:50;7.97;;;5.38;;
41512;SDS011;27244;59.940;30.280;2022-08-20T06:46:18;10.77;;;6.82;;
41512;SDS011;27244;59.940;30.280;2022-08-20T06:48:49;11.00;;;5.82;;
41512;SDS011;27244;59.940;30.280;2022-08-20T06:51:18;10.63;;;6.43;;
41512;SDS011;27244;59.940;30.280;2022-08-20T06:53:46;10.18;;;6.43;;
41512;SDS011;27244;59.940;30.280;2022-08-20T06:56:13;8.45;;;6.07;;
41512;SDS011;27244;59.940;30.280;2022-08-20T06:58:40;10.43;;;6.00;;
41512;SDS011;27244;59.940;30.280;2022-08-20T07:01:09;12.68;;;6.22;;
41512;SDS011;27244;59.940;30.280;2022-08-20T07:03:36;8.82;;;6.78;;
41512;SDS011;27244;59.940;30.280;2022-08-20T07:06:06;10.38;;;6.68;;
41512;SDS011;27244;59.940;30.280;2022-08-20T07:08:34;13.30;;;7.57;;
41512;SDS011;27244;59.940;30.280;2022-08-20T07:11:01;13.23;;;6.88;;
41512;SDS011;27244;59.940;30.280;2022-08-20T07:13:29;12.23;;;7.63;;
41512;SDS011;27244;59.940;30.280;2022-08-20T07:15:56;13.68;;;7.40;;
41512;SDS011;27244;59.940;30.280;2022-08-20T07:18:23;9.80;;;7.65;;
41512;SDS011;27244;59.940;30.280;2022-08-20T07:20:50;11.43;;;7.63;;
41512;SDS011;27244;59.940;30.280;2022-08-20T07:23:22;16.00;;;8.52;;
41512;SDS011;27244;59.940;30.280;2022-08-20T07:25:49;13.77;;;8.25;;
41512;SDS011;27244;59.940;30.280;2022-08-20T07:28:17;12.77;;;7.28;;
41512;SDS011;27244;59.940;30.280;2022-08-20T07:30:46;17.55;;;7.60;;
41512;SDS011;27244;59.940;30.280;2022-08-20T07:33:33;15.60;;;8.00;;
41512;SDS011;27244;59.940;30.280;2022-08-20T07:36:01;16.63;;;7.85;;
41512;SDS011;27244;59.940;30.280;2022-08-20T07:38:31;16.67;;;7.80;;
41512;SDS011;27244;59.940;30.280;2022-08-20T07:41:00;15.48;;;7.90;;
41512;SDS011;27244;59.940;30.280;2022-08-20T07:43:29;11.67;;;7.03;;
41512;SDS011;27244;59.940;30.280;2022-08-20T07:45:57;15.70;;;8.07;;
41512;SDS011;27244;59.940;30.280;2022-08-20T07:48:26;15.88;;;7.88;;
41512;SDS011;27244;59.940;30.280;2022-08-20T07:50:55;10.70;;;6.93;;
41512;SDS011;27244;59.940;30.280;2022-08-20T07:53:23;11.75;;;7.55;;
41512;SDS011;27244;59.940;30.280;2022-08-20T07:55:53;15.90;;;8.05;;
41512;SDS011;27244;59.940;30.280;2022-08-20T07:58:21;15.07;;;7.20;;
41512;SDS011;27244;59.940;30.280;2022-08-20T08:00:49;16.35;;;7.38;;
41512;SDS011;27244;59.940;30.280;2022-08-20T08:03:17;9.05;;;7.15;;
41512;SDS011;27244;59.940;30.280;2022-08-20T08:05:45;17.00;;;7.53;;
41512;SDS011;27244;59.940;30.280;2022-08-20T08:08:16;12.57;;;7.07;;
41512;SDS011;27244;59.940;30.280;2022-08-20T08:10:48;11.02;;;6.97;;
41512;SDS011;27244;59.940;30.280;2022-08-20T08:13:27;10.70;;;7.70;;
41512;SDS011;27244;59.940;30.280;2022-08-20T08:15:57;16.73;;;7.80;;
41512;SDS011;27244;59.940;30.280;2022-08-20T08:18:27;15.63;;;7.57;;
41512;SDS011;27244;59.940;30.280;2022-08-20T08:20:59;13.63;;;7.80;;
41512;SDS011;27244;59.940;30.280;2022-08-20T08:23:26;15.38;;;7.53;;
41512;SDS011;27244;59.940;30.280;2022-08-20T08:25:53;17.05;;;8.02;;
41512;SDS011;27244;59.940;30.280;2022-08-20T08:28:20;18.67;;;7.50;;
41512;SDS011;27244;59.940;30.280;2022-08-20T08:30:49;21.83;;;7.35;;
41512;SDS011;27244;59.940;30.280;2022-08-20T08:33:17;18.75;;;7.65;;
41512;SDS011;27244;59.940;30.280;2022-08-20T08:35:55;19.05;;;7.78;;
41512;SDS011;27244;59.940;30.280;2022-08-20T08:38:26;23.98;;;7.93;;
41512;SDS011;27244;59.940;30.280;2022-08-20T08:40:54;18.98;;;7.47;;
41512;SDS011;27244;59.940;30.280;2022-08-20T08:43:24;19.23;;;7.07;;
41512;SDS011;27244;59.940;30.280;2022-08-20T08:45:59;22.07;;;6.73;;
41512;SDS011;27244;59.940;30.280;2022-08-20T08:48:30;21.00;;;7.07;;
41512;SDS011;27244;59.940;30.280;2022-08-20T08:51:00;28.42;;;8.73;;
41512;SDS011;27244;59.940;30.280;2022-08-20T08:53:31;33.03;;;10.05;;
41512;SDS011;27244;59.940;30.280;2022-08-20T08:56:03;30.25;;;9.38;;
41512;SDS011;27244;59.940;30.280;2022-08-20T08:58:31;25.63;;;8.93;;
41512;SDS011;27244;59.940;30.280;2022-08-20T09:01:02;16.17;;;7.40;;
41512;SDS011;27244;59.940;30.280;2022-08-20T09:03:35;23.38;;;7.75;;
41512;SDS011;27244;59.940;30.280;2022-08-20T09:06:08;18.38;;;6.72;;
41512;SDS011;27244;59.940;30.280;2022-08-20T09:08:40;20.83;;;6.80;;
41512;SDS011;27244;59.940;30.280;2022-08-20T09:11:12;23.63;;;7.20;;
41512;SDS011;27244;59.940;30.280;2022-08-20T09:13:41;23.13;;;6.50;;
41512;SDS011;27244;59.940;30.280;2022-08-20T09:16:10;19.15;;;5.88;;
41512;SDS011;27244;59.940;30.280;2022-08-20T09:18:38;23.77;;;6.53;;
41512;SDS011;27244;59.940;30.280;2022-08-20T09:21:06;21.52;;;7.00;;
41512;SDS011;27244;59.940;30.280;2022-08-20T09:23:34;14.90;;;6.07;;
41512;SDS011;27244;59.940;30.280;2022-08-20T09:26:01;25.15;;;7.32;;
41512;SDS011;27244;59.940;30.280;2022-08-20T09:28:28;18.67;;;6.18;;
41512;SDS011;27244;59.940;30.280;2022-08-20T09:30:55;17.45;;;6.18;;
41512;SDS011;27244;59.940;30.280;2022-08-20T09:33:24;15.48;;;6.28;;
41512;SDS011;27244;59.940;30.280;2022-08-20T09:35:51;18.95;;;6.57;;
41512;SDS011;27244;59.940;30.280;2022-08-20T09:38:18;21.73;;;6.43;;
41512;SDS011;27244;59.940;30.280;2022-08-20T09:40:46;24.48;;;7.13;;
41512;SDS011;27244;59.940;30.280;2022-08-20T09:43:13;18.50;;;6.30;;
41512;SDS011;27244;59.940;30.280;2022-08-20T09:45:40;20.80;;;6.13;;
41512;SDS011;27244;59.940;30.280;2022-08-20T09:48:07;24.00;;;7.25;;
41512;SDS011;27244;59.940;30.280;2022-08-20T09:50:35;20.92;;;6.15;;
41512;SDS011;27244;59.940;30.280;2022-08-20T09:53:08;19.10;;;6.47;;
41512;SDS011;27244;59.940;30.280;2022-08-20T09:55:37;13.77;;;5.57;;
41512;SDS011;27244;59.940;30.280;2022-08-20T09:58:07;20.88;;;5.53;;
41512;SDS011;27244;59.940;30.280;2022-08-20T10:00:39;22.83;;;6.15;;
41512;SDS011;27244;59.940;30.280;2022-08-20T10:03:06;18.02;;;4.88;;
41512;SDS011;27244;59.940;30.280;2022-08-20T10:05:33;19.90;;;5.65;;
41512;SDS011;27244;59.940;30.280;2022-08-20T10:08:04;20.20;;;4.95;;
41512;SDS011;27244;59.940;30.280;2022-08-20T10:10:32;19.33;;;5.70;;
41512;SDS011;27244;59.940;30.280;2022-08-20T10:12:59;26.58;;;6.22;;
41512;SDS011;27244;59.940;30.280;2022-08-20T10:15:27;22.92;;;5.78;;
41512;SDS011;27244;59.940;30.280;2022-08-20T10:17:54;23.77;;;7.25;;
41512;SDS011;27244;59.940;30.280;2022-08-20T10:20:23;22.45;;;5.75;;
41512;SDS011;27244;59.940;30.280;2022-08-20T10:22:52;29.30;;;5.97;;
41512;SDS011;27244;59.940;30.280;2022-08-20T10:25:20;21.35;;;5.88;;
41512;SDS011;27244;59.940;30.280;2022-08-20T10:27:48;19.92;;;5.35;;
41512;SDS011;27244;59.940;30.280;2022-08-20T10:30:15;17.27;;;5.50;;
41512;SDS011;27244;59.940;30.280;2022-08-20T10:32:42;15.02;;;4.90;;
41512;SDS011;27244;59.940;30.280;2022-08-20T10:35:09;17.40;;;5.18;;
41512;SDS011;27244;59.940;30.280;2022-08-20T10:37:36;14.18;;;5.10;;
41512;SDS011;27244;59.940;30.280;2022-08-20T10:40:03;15.48;;;5.07;;
41512;SDS011;27244;59.940;30.280;2022-08-20T10:42:33;16.90;;;4.40;;
41512;SDS011;27244;59.940;30.280;2022-08-20T10:45:00;15.65;;;5.40;;
41512;SDS011;27244;59.940;30.280;2022-08-20T10:47:28;17.17;;;4.93;;
41512;SDS011;27244;59.940;30.280;2022-08-20T10:49:57;14.55;;;4.32;;
41512;SDS011;27244;59.940;30.280;2022-08-20T10:52:25;15.82;;;5.30;;
41512;SDS011;27244;59.940;30.280;2022-08-20T10:54:52;20.95;;;5.18;;
41512;SDS011;27244;59.940;30.280;2022-08-20T10:57:20;16.35;;;4.78;;
41512;SDS011;27244;59.940;30.280;2022-08-20T10:59:51;13.43;;;4.57;;
41512;SDS011;27244;59.940;30.280;2022-08-20T11:02:20;14.87;;;4.70;;
41512;SDS011;27244;59.940;30.280;2022-08-20T11:04:47;8.88;;;4.45;;
41512;SDS011;27244;59.940;30.280;2022-08-20T11:07:16;11.80;;;4.13;;
41512;SDS011;27244;59.940;30.280;2022-08-20T11:09:45;13.85;;;4.57;;
41512;SDS011;27244;59.940;30.280;2022-08-20T11:12:14;15.35;;;4.45;;
41512;SDS011;27244;59.940;30.280;2022-08-20T11:14:42;15.57;;;5.40;;
41512;SDS011;27244;59.940;30.280;2022-08-20T11:17:10;14.75;;;5.05;;
41512;SDS011;27244;59.940;30.280;2022-08-20T11:19:39;14.20;;;5.15;;
41512;SDS011;27244;59.940;30.280;2022-08-20T11:22:07;13.80;;;4.43;;
41512;SDS011;27244;59.940;30.280;2022-08-20T11:24:34;14.43;;;5.40;;
41512;SDS011;27244;59.940;30.280;2022-08-20T11:27:02;20.48;;;5.90;;
41512;SDS011;27244;59.940;30.280;2022-08-20T11:29:31;12.82;;;4.85;;
41512;SDS011;27244;59.940;30.280;2022-08-20T11:31:58;16.63;;;4.85;;
41512;SDS011;27244;59.940;30.280;2022-08-20T11:34:27;13.15;;;4.00;;
41512;SDS011;27244;59.940;30.280;2022-08-20T11:36:54;15.50;;;4.25;;
41512;SDS011;27244;59.940;30.280;2022-08-20T11:39:23;16.33;;;4.20;;
41512;SDS011;27244;59.940;30.280;2022-08-20T11:41:50;13.32;;;4.35;;
41512;SDS011;27244;59.940;30.280;2022-08-20T11:44:17;8.85;;;3.83;;
41512;SDS011;27244;59.940;30.280;2022-08-20T11:46:54;21.00;;;4.90;;
41512;SDS011;27244;59.940;30.280;2022-08-20T11:49:24;22.73;;;5.72;;
41512;SDS011;27244;59.940;30.280;2022-08-20T11:51:52;15.57;;;4.40;;
41512;SDS011;27244;59.940;30.280;2022-08-20T11:54:19;17.02;;;4.50;;
41512;SDS011;27244;59.940;30.280;2022-08-20T11:56:46;13.52;;;4.85;;
41512;SDS011;27244;59.940;30.280;2022-08-20T11:59:17;8.70;;;4.45;;
41512;SDS011;27244;59.940;30.280;2022-08-20T12:01:47;10.55;;;4.90;;
41512;SDS011;27244;59.940;30.280;2022-08-20T12:04:14;12.70;;;4.25;;
41512;SDS011;27244;59.940;30.280;2022-08-20T12:06:41;11.82;;;4.63;;
41512;SDS011;27244;59.940;30.280;2022-08-20T12:09:10;10.65;;;3.85;;
41512;SDS011;27244;59.940;30.280;2022-08-20T12:11:37;9.27;;;4.20;;
41512;SDS011;27244;59.940;30.280;2022-08-20T12:14:04;16.42;;;4.13;;
41512;SDS011;27244;59.940;30.280;2022-08-20T12:16:31;21.20;;;4.05;;
41512;SDS011;27244;59.940;30.280;2022-08-20T12:18:58;12.32;;;3.92;;
41512;SDS011;27244;59.940;30.280;2022-08-20T12:21:25;13.13;;;4.35;;
41512;SDS011;27244;59.940;30.280;2022-08-20T12:23:52;16.80;;;4.22;;
41512;SDS011;27244;59.940;30.280;2022-08-20T12:26:20;10.43;;;3.83;;
41512;SDS011;27244;59.940;30.280;2022-08-20T12:28:47;14.95;;;4.40;;
41512;SDS011;27244;59.940;30.280;2022-08-20T12:31:14;15.45;;;4.20;;
41512;SDS011;27244;59.940;30.280;2022-08-20T12:33:41;15.05;;;4.05;;
41512;SDS011;27244;59.940;30.280;2022-08-20T12:36:08;9.55;;;3.35;;
41512;SDS011;27244;59.940;30.280;2022-08-20T12:38:36;10.43;;;4.07;;
41512;SDS011;27244;59.940;30.280;2022-08-20T12:41:03;12.57;;;4.32;;
41512;SDS011;27244;59.940;30.280;2022-08-20T12:43:31;10.63;;;4.00;;
41512;SDS011;27244;59.940;30.280;2022-08-20T12:45:58;9.43;;;3.85;;
41512;SDS011;27244;59.940;30.280;2022-08-20T12:48:25;12.00;;;3.80;;
41512;SDS011;27244;59.940;30.280;2022-08-20T12:50:52;9.85;;;4.60;;
41512;SDS011;27244;59.940;30.280;2022-08-20T12:53:19;13.38;;;4.25;;
41512;SDS011;27244;59.940;30.280;2022-08-20T12:55:46;8.75;;;4.00;;
41512;SDS011;27244;59.940;30.280;2022-08-20T12:58:14;9.82;;;4.38;;
41512;SDS011;27244;59.940;30.280;2022-08-20T13:00:43;11.85;;;4.20;;
41512;SDS011;27244;59.940;30.280;2022-08-20T13:03:12;14.18;;;4.55;;
41512;SDS011;27244;59.940;30.280;2022-08-20T13:05:39;13.52;;;4.43;;
41512;SDS011;27244;59.940;30.280;2022-08-20T13:08:06;10.23;;;4.07;;
41512;SDS011;27244;59.940;30.280;2022-08-20T13:10:36;9.05;;;4.00;;
41512;SDS011;27244;59.940;30.280;2022-08-20T13:13:08;12.05;;;4.25;;
41512;SDS011;27244;59.940;30.280;2022-08-20T13:15:35;11.23;;;4.63;;
41512;SDS011;27244;59.940;30.280;2022-08-20T13:18:05;12.70;;;4.28;;
41512;SDS011;27244;59.940;30.280;2022-08-20T13:20:32;8.73;;;4.05;;
41512;SDS011;27244;59.940;30.280;2022-08-20T13:23:00;10.93;;;4.35;;
41512;SDS011;27244;59.940;30.280;2022-08-20T13:25:27;10.48;;;4.65;;
41512;SDS011;27244;59.940;30.280;2022-08-20T13:27:55;11.15;;;4.95;;
41512;SDS011;27244;59.940;30.280;2022-08-20T13:30:23;14.55;;;5.32;;
41512;SDS011;27244;59.940;30.280;2022-08-20T13:32:51;10.10;;;4.95;;
41512;SDS011;27244;59.940;30.280;2022-08-20T13:35:19;10.27;;;4.28;;
41512;SDS011;27244;59.940;30.280;2022-08-20T13:37:47;12.30;;;5.00;;
41512;SDS011;27244;59.940;30.280;2022-08-20T13:40:15;12.07;;;4.65;;
41512;SDS011;27244;59.940;30.280;2022-08-20T13:42:42;10.23;;;4.90;;
41512;SDS011;27244;59.940;30.280;2022-08-20T13:45:09;12.32;;;5.22;;
41512;SDS011;27244;59.940;30.280;2022-08-20T13:47:37;12.05;;;4.97;;
41512;SDS011;27244;59.940;30.280;2022-08-20T13:50:06;9.43;;;4.82;;
41512;SDS011;27244;59.940;30.280;2022-08-20T13:52:37;10.27;;;4.60;;
41512;SDS011;27244;59.940;30.280;2022-08-20T13:55:06;9.77;;;4.65;;
41512;SDS011;27244;59.940;30.280;2022-08-20T13:57:34;12.07;;;4.60;;
41512;SDS011;27244;59.940;30.280;2022-08-20T14:00:03;12.75;;;5.38;;
41512;SDS011;27244;59.940;30.280;2022-08-20T14:02:36;13.73;;;5.15;;
41512;SDS011;27244;59.940;30.280;2022-08-20T14:05:03;13.13;;;4.60;;
41512;SDS011;27244;59.940;30.280;2022-08-20T14:07:30;8.48;;;4.75;;
41512;SDS011;27244;59.940;30.280;2022-08-20T14:10:00;9.85;;;4.63;;
41512;SDS011;27244;59.940;30.280;2022-08-20T14:12:31;10.07;;;5.03;;
41512;SDS011;27244;59.940;30.280;2022-08-20T14:14:58;10.15;;;4.63;;
41512;SDS011;27244;59.940;30.280;2022-08-20T14:17:25;6.72;;;4.43;;
41512;SDS011;27244;59.940;30.280;2022-08-20T14:19:54;8.48;;;4.50;;
41512;SDS011;27244;59.940;30.280;2022-08-20T14:22:26;9.40;;;4.90;;
41512;SDS011;27244;59.940;30.280;2022-08-20T14:24:53;10.98;;;4.63;;
41512;SDS011;27244;59.940;30.280;2022-08-20T14:27:22;12.18;;;4.07;;
41512;SDS011;27244;59.940;30.280;2022-08-20T14:29:49;8.20;;;4.20;;
41512;SDS011;27244;59.940;30.280;2022-08-20T14:32:16;6.18;;;3.72;;
41512;SDS011;27244;59.940;30.280;2022-08-20T14:34:43;6.85;;;3.75;;
41512;SDS011;27244;59.940;30.280;2022-08-20T14:37:12;9.48;;;4.65;;
41512;SDS011;27244;59.940;30.280;2022-08-20T14:39:40;10.88;;;4.03;;
41512;SDS011;27244;59.940;30.280;2022-08-20T14:42:08;8.05;;;4.05;;